createdAt,value
2023-03-01T00:01:47.201Z,101290.13
2023-03-01T00:04:14.952Z,101290.50
2023-03-01T00:06:46.972Z,101295.59
2023-03-01T00:09:16.960Z,101286.41
2023-03-01T00:11:44.826Z,101289.19
2023-03-01T00:14:12.563Z,101288.94
2023-03-01T00:16:42.530Z,101302.06
2023-03-01T00:19:13.419Z,101300.28
2023-03-01T00:21:41.601Z,101298.31
2023-03-01T00:24:10.215Z,101297.00
2023-03-01T00:26:39.689Z,101297.16
2023-03-01T00:29:07.705Z,101294.88
2023-03-01T00:31:35.920Z,101294.22
2023-03-01T00:34:05.821Z,101288.69
2023-03-01T00:36:35.465Z,101281.47
2023-03-01T00:39:05.213Z,101272.63
2023-03-01T00:41:34.790Z,101282.66
2023-03-01T00:44:03.838Z,101273.75
2023-03-01T00:46:32.220Z,101266.09
2023-03-01T00:49:02.891Z,101269.00
2023-03-01T00:51:31.659Z,101271.31
2023-03-01T00:54:01.748Z,101268.75
2023-03-01T00:56:29.883Z,101275.16
2023-03-01T00:58:57.799Z,101277.97
2023-03-01T01:01:31.671Z,101267.34
2023-03-01T01:04:01.965Z,101267.66
2023-03-01T01:06:32.373Z,101274.84
2023-03-01T01:09:00.740Z,101267.50
2023-03-01T01:11:29.586Z,101267.19
2023-03-01T01:13:58.218Z,101253.16
2023-03-01T01:16:29.654Z,101252.56
2023-03-01T01:18:58.221Z,101249.22
2023-03-01T01:21:26.530Z,101245.66
2023-03-01T01:23:54.823Z,101247.44
2023-03-01T01:26:24.786Z,101235.03
2023-03-01T01:28:53.188Z,101224.63
2023-03-01T01:31:21.589Z,101228.53
2023-03-01T01:33:50.541Z,101215.75
2023-03-01T01:36:18.233Z,101213.22
2023-03-01T01:38:45.941Z,101212.13
2023-03-01T01:41:14.929Z,101211.22
2023-03-01T01:43:44.530Z,101207.03
2023-03-01T01:46:22.170Z,101221.06
2023-03-01T01:48:56.913Z,101216.69
2023-03-01T01:51:29.202Z,101216.00
2023-03-01T01:54:02.551Z,101222.47
2023-03-01T01:56:32.825Z,101226.84
2023-03-01T01:59:03.342Z,101226.00
2023-03-01T02:01:31.092Z,101230.28
2023-03-01T02:04:00.795Z,101229.59
2023-03-01T02:06:32.034Z,101230.47
2023-03-01T02:09:04.252Z,101232.56
2023-03-01T02:11:33.123Z,101223.06
2023-03-01T02:14:00.747Z,101237.09
2023-03-01T02:16:30.304Z,101231.91
2023-03-01T02:19:00.396Z,101229.84
2023-03-01T02:21:40.227Z,101224.53
2023-03-01T02:24:20.947Z,101214.72
2023-03-01T02:26:53.769Z,101215.53
2023-03-01T02:29:23.046Z,101212.38
2023-03-01T02:31:53.200Z,101201.38
2023-03-01T02:34:26.209Z,101200.22
2023-03-01T02:36:58.094Z,101202.00
2023-03-01T02:39:30.492Z,101198.56
2023-03-01T02:41:59.894Z,101186.44
2023-03-01T02:44:28.937Z,101187.59
2023-03-01T02:46:58.989Z,101193.25
2023-03-01T02:49:29.049Z,101191.31
2023-03-01T02:52:24.239Z,101184.69
2023-03-01T02:54:58.010Z,101177.75
2023-03-01T02:57:28.307Z,101172.13
2023-03-01T03:00:01.491Z,101169.94
2023-03-01T03:02:38.479Z,101171.34
2023-03-01T03:05:10.445Z,101170.28
2023-03-01T03:07:43.814Z,101163.72
2023-03-01T03:10:14.414Z,101167.44
2023-03-01T03:12:42.837Z,101152.69
2023-03-01T03:15:13.661Z,101164.59
2023-03-01T03:17:45.342Z,101158.31
2023-03-01T03:20:19.896Z,101160.81
2023-03-01T03:22:48.035Z,101141.59
2023-03-01T03:25:18.717Z,101154.13
2023-03-01T03:27:48.514Z,101147.13
2023-03-01T03:30:21.858Z,101145.44
2023-03-01T03:32:53.165Z,101150.34
2023-03-01T03:35:22.111Z,101138.97
2023-03-01T03:38:09.900Z,101136.44
2023-03-01T03:40:39.181Z,101133.91
2023-03-01T03:43:10.064Z,101136.00
2023-03-01T03:45:39.101Z,101124.00
2023-03-01T03:48:08.793Z,101136.00
2023-03-01T03:50:36.468Z,101125.06
2023-03-01T03:53:07.083Z,101127.16
2023-03-01T03:55:34.834Z,101130.69
2023-03-01T03:58:07.843Z,101123.75
2023-03-01T04:00:37.148Z,101128.91
2023-03-01T04:03:06.564Z,101133.44
2023-03-01T04:05:35.467Z,101132.75
2023-03-01T04:08:07.949Z,101130.50
2023-03-01T04:10:39.896Z,101138.84
2023-03-01T04:13:11.549Z,101142.66
2023-03-01T04:15:40.224Z,101138.97
2023-03-01T04:18:09.311Z,101142.03
2023-03-01T04:20:42.023Z,101146.50
2023-03-01T04:23:16.952Z,101141.13
2023-03-01T04:25:50.273Z,101146.38
2023-03-01T04:31:14.586Z,101138.75
2023-03-01T04:33:45.622Z,101143.59
2023-03-01T04:36:15.765Z,101138.91
2023-03-01T04:38:48.433Z,101136.84
2023-03-01T04:41:18.271Z,101129.75
2023-03-01T04:43:46.091Z,101127.69
2023-03-01T04:46:16.077Z,101128.66
2023-03-01T04:48:47.830Z,101131.00
2023-03-01T04:51:19.329Z,101129.47
2023-03-01T04:53:46.986Z,101131.84
2023-03-01T04:56:15.541Z,101140.97
2023-03-01T04:58:43.826Z,101136.81
2023-03-01T05:01:16.234Z,101136.28
2023-03-01T05:03:46.862Z,101137.59
2023-03-01T05:06:14.972Z,101137.75
2023-03-01T05:08:43.880Z,101132.53
2023-03-01T05:11:12.546Z,101127.09
2023-03-01T05:13:41.360Z,101131.22
2023-03-01T05:16:12.294Z,101128.97
2023-03-01T05:18:43.635Z,101123.78
2023-03-01T05:21:16.909Z,101121.47
2023-03-01T05:23:44.877Z,101128.53
2023-03-01T05:26:27.408Z,101133.97
2023-03-01T05:29:00.283Z,101138.28
2023-03-01T05:31:28.616Z,101137.63
2023-03-01T05:33:56.198Z,101133.38
2023-03-01T05:36:25.128Z,101131.53
2023-03-01T05:38:52.690Z,101135.34
2023-03-01T05:41:20.275Z,101131.78
2023-03-01T05:43:47.865Z,101124.13
2023-03-01T05:46:16.298Z,101126.31
2023-03-01T05:48:44.584Z,101128.97
2023-03-01T05:51:13.005Z,101133.28
2023-03-01T05:53:42.563Z,101127.06
2023-03-01T05:56:10.194Z,101128.06
2023-03-01T05:58:39.577Z,101129.56
2023-03-01T06:01:07.486Z,101126.63
2023-03-01T06:03:35.201Z,101116.47
2023-03-01T06:06:03.125Z,101123.69
2023-03-01T06:08:30.915Z,101120.81
2023-03-01T06:11:00.237Z,101122.50
2023-03-01T06:13:27.938Z,101119.47
2023-03-01T06:15:55.761Z,101116.47
2023-03-01T06:18:23.479Z,101126.22
2023-03-01T06:20:55.082Z,101130.34
2023-03-01T06:23:23.118Z,101129.31
2023-03-01T06:25:51.057Z,101140.94
2023-03-01T06:28:20.022Z,101137.22
2023-03-01T06:30:47.725Z,101141.44
2023-03-01T06:33:16.249Z,101146.00
2023-03-01T06:35:44.003Z,101150.59
2023-03-01T06:38:11.590Z,101138.88
2023-03-01T06:40:39.210Z,101137.38
2023-03-01T06:43:08.203Z,101138.75
2023-03-01T06:45:37.175Z,101126.94
2023-03-01T06:48:07.691Z,101113.22
2023-03-01T06:50:36.382Z,101113.63
2023-03-01T06:53:04.635Z,101114.69
2023-03-01T06:55:48.750Z,101106.06
2023-03-01T06:58:16.649Z,101112.78
2023-03-01T07:00:45.740Z,101118.28
2023-03-01T07:03:20.116Z,101114.38
2023-03-01T07:05:51.246Z,101112.69
2023-03-01T07:08:23.393Z,101108.34
2023-03-01T07:10:57.748Z,101115.81
2023-03-01T07:13:25.921Z,101120.91
2023-03-01T07:15:55.165Z,101121.31
2023-03-01T07:18:23.176Z,101120.25
2023-03-01T07:20:51.582Z,101118.06
2023-03-01T07:23:19.176Z,101110.75
2023-03-01T07:25:52.678Z,101106.00
2023-03-01T07:28:20.360Z,101117.84
2023-03-01T07:30:48.113Z,101108.03
2023-03-01T07:33:17.136Z,101109.19
2023-03-01T07:35:44.827Z,101102.25
2023-03-01T07:38:12.414Z,101113.19
2023-03-01T07:40:40.205Z,101107.41
2023-03-01T07:43:07.908Z,101119.69
2023-03-01T07:45:35.707Z,101115.06
2023-03-01T07:48:03.461Z,101114.03
2023-03-01T07:50:32.882Z,101115.78
2023-03-01T07:53:00.470Z,101112.47
2023-03-01T07:55:28.022Z,101117.69
2023-03-01T07:57:55.963Z,101116.03
2023-03-01T08:00:26.200Z,101115.06
2023-03-01T08:02:53.938Z,101119.00
2023-03-01T08:05:23.225Z,101102.66
2023-03-01T08:07:52.150Z,101112.44
2023-03-01T08:10:20.225Z,101117.66
2023-03-01T08:12:47.827Z,101108.09
2023-03-01T08:15:15.495Z,101101.38
2023-03-01T08:17:43.099Z,101101.09
2023-03-01T08:20:13.329Z,101097.69
2023-03-01T08:22:41.017Z,101092.69
2023-03-01T08:25:12.004Z,101080.28
2023-03-01T08:27:39.594Z,101090.09
2023-03-01T08:30:08.863Z,101072.09
2023-03-01T08:32:40.108Z,101076.84
2023-03-01T08:35:08.524Z,101066.03
2023-03-01T08:37:36.102Z,101062.75
2023-03-01T08:40:04.773Z,101072.03
2023-03-01T08:42:34.972Z,101059.78
2023-03-01T08:45:02.590Z,101061.00
2023-03-01T08:47:31.460Z,101057.53
2023-03-01T08:50:02.570Z,101047.31
2023-03-01T08:53:06.900Z,101039.78
2023-03-01T08:55:36.443Z,101041.69
2023-03-01T08:58:12.501Z,101023.88
2023-03-01T09:00:40.993Z,101029.16
2023-03-01T09:03:08.650Z,101033.47
2023-03-01T09:05:37.732Z,101026.56
2023-03-01T09:08:05.763Z,101008.72
2023-03-01T09:10:35.001Z,101004.28
2023-03-01T09:13:02.667Z,101019.06
2023-03-01T09:15:32.363Z,101005.81
2023-03-01T09:18:03.706Z,101004.72
2023-03-01T09:20:33.636Z,101006.28
2023-03-01T09:23:01.671Z,101008.66
2023-03-01T09:25:29.598Z,100997.00
2023-03-01T09:27:57.236Z,100993.03
2023-03-01T09:30:35.165Z,100994.09
2023-03-01T09:33:15.384Z,100992.94
2023-03-01T09:35:47.643Z,100985.03
2023-03-01T09:38:17.909Z,100982.81
2023-03-01T09:40:47.448Z,100995.81
2023-03-01T09:43:22.801Z,100994.69
2023-03-01T09:45:54.697Z,100986.34
2023-03-01T09:48:28.624Z,100990.81
2023-03-01T09:50:58.268Z,100988.66
2023-03-01T09:53:36.159Z,100978.59
2023-03-01T09:56:13.121Z,100989.50
2023-03-01T09:58:53.768Z,100973.50
2023-03-01T10:01:35.661Z,100974.19
2023-03-01T10:04:22.484Z,100969.25
2023-03-01T10:07:03.924Z,100971.97
2023-03-01T10:09:35.226Z,100973.44
2023-03-01T10:12:06.514Z,100967.34
2023-03-01T10:14:47.447Z,100971.66
2023-03-01T10:17:26.227Z,100979.63
2023-03-01T10:19:55.605Z,100968.34
2023-03-01T10:22:26.809Z,100960.94
2023-03-01T10:24:56.375Z,100964.63
2023-03-01T10:27:25.935Z,100963.25
2023-03-01T10:30:16.636Z,100967.41
2023-03-01T10:32:49.910Z,100957.03
2023-03-01T10:35:22.358Z,100951.44
2023-03-01T10:38:05.610Z,100943.78
2023-03-01T10:40:33.784Z,100939.31
2023-03-01T10:43:04.563Z,100941.31
2023-03-01T10:45:36.609Z,100941.56
2023-03-01T10:48:17.287Z,100936.69
2023-03-01T10:50:55.643Z,100933.50
2023-03-01T10:53:30.035Z,100926.13
2023-03-01T10:56:03.416Z,100904.16
2023-03-01T10:58:31.677Z,100901.81
2023-03-01T11:01:02.403Z,100902.34
2023-03-01T11:03:32.827Z,100897.72
2023-03-01T11:06:06.526Z,100884.56
2023-03-01T11:08:51.650Z,100883.03
2023-03-01T11:11:26.159Z,100876.97
2023-03-01T11:13:58.045Z,100878.88
2023-03-01T11:16:35.911Z,100867.66
2023-03-01T11:19:27.626Z,100868.94
2023-03-01T11:22:06.880Z,100876.94
2023-03-01T11:24:42.444Z,100859.28
2023-03-01T11:27:19.778Z,100851.25
2023-03-01T11:29:54.207Z,100850.03
2023-03-01T11:32:25.803Z,100853.84
2023-03-01T11:34:58.341Z,100848.75
2023-03-01T11:38:05.189Z,100836.81
2023-03-01T11:40:46.341Z,100827.94
2023-03-01T11:43:24.276Z,100825.72
2023-03-01T11:46:27.011Z,100810.97
2023-03-01T11:49:09.243Z,100814.47
2023-03-01T11:51:48.248Z,100802.00
2023-03-01T11:54:29.434Z,100805.34
2023-03-01T11:57:07.312Z,100797.19
2023-03-01T12:00:08.650Z,100788.06
2023-03-01T12:02:59.286Z,100787.16
2023-03-01T12:06:09.194Z,100788.00
2023-03-01T12:08:50.420Z,100785.69
2023-03-01T12:11:34.063Z,100778.94
2023-03-01T12:14:27.415Z,100771.28
2023-03-01T12:17:25.514Z,100765.66
2023-03-01T12:20:17.560Z,100755.19
2023-03-01T12:23:19.944Z,100754.75
2023-03-01T12:29:04.097Z,100734.78
2023-03-01T12:31:54.477Z,100733.31
2023-03-01T12:34:48.379Z,100746.94
2023-03-01T12:37:43.073Z,100729.38
2023-03-01T12:40:31.229Z,100721.44
2023-03-01T12:43:13.991Z,100718.50
2023-03-01T12:46:08.447Z,100701.00
2023-03-01T12:48:46.944Z,100703.16
2023-03-01T12:51:17.888Z,100701.03
2023-03-01T12:53:49.040Z,100692.59
2023-03-01T12:56:22.275Z,100683.59
2023-03-01T12:58:59.960Z,100684.44
2023-03-01T13:01:41.586Z,100666.16
2023-03-01T13:04:35.379Z,100668.22
2023-03-01T13:07:26.023Z,100672.41
2023-03-01T13:10:03.223Z,100680.72
2023-03-01T13:12:52.175Z,100659.75
2023-03-01T13:15:35.087Z,100647.69
2023-03-01T13:18:26.541Z,100650.25
2023-03-01T13:21:00.496Z,100646.56
2023-03-01T13:23:31.908Z,100650.94
2023-03-01T13:26:13.370Z,100643.56
2023-03-01T13:28:54.534Z,100629.72
2023-03-01T13:31:56.140Z,100622.72
2023-03-01T13:34:46.490Z,100616.38
2023-03-01T13:37:30.461Z,100602.34
2023-03-01T13:40:28.987Z,100619.38
2023-03-01T13:43:05.752Z,100601.00
2023-03-01T13:45:41.469Z,100616.03
2023-03-01T13:48:17.210Z,100599.69
2023-03-01T13:50:50.004Z,100604.84
2023-03-01T13:53:20.761Z,100601.19
2023-03-01T13:55:50.653Z,100598.69
2023-03-01T13:58:24.553Z,100584.31
2023-03-01T14:00:59.390Z,100595.50
2023-03-01T14:03:27.812Z,100587.34
2023-03-01T14:06:15.399Z,100574.47
2023-03-01T14:08:45.659Z,100585.00
2023-03-01T14:11:49.395Z,100579.84
2023-03-01T14:14:40.068Z,100580.84
2023-03-01T14:17:30.798Z,100578.81
2023-03-01T14:20:00.522Z,100574.81
2023-03-01T14:22:30.287Z,100572.50
2023-03-01T14:25:02.850Z,100572.81
2023-03-01T14:27:37.353Z,100578.69
2023-03-01T14:30:16.627Z,100576.84
2023-03-01T14:32:45.741Z,100575.34
2023-03-01T14:35:24.311Z,100563.97
2023-03-01T14:37:53.144Z,100569.78
2023-03-01T14:40:27.690Z,100556.13
2023-03-01T14:42:57.185Z,100557.13
2023-03-01T14:45:29.562Z,100562.81
2023-03-01T14:48:03.677Z,100557.13
2023-03-01T14:50:37.267Z,100560.63
2023-03-01T14:53:09.535Z,100549.47
2023-03-01T14:55:42.170Z,100544.94
2023-03-01T14:58:19.656Z,100540.75
2023-03-01T15:00:54.292Z,100541.44
2023-03-01T15:03:27.533Z,100532.56
2023-03-01T15:05:56.984Z,100532.25
2023-03-01T15:08:27.519Z,100535.59
2023-03-01T15:11:00.649Z,100536.41
2023-03-01T15:13:32.792Z,100531.94
2023-03-01T15:16:13.181Z,100534.59
2023-03-01T15:18:54.272Z,100528.06
2023-03-01T15:21:32.317Z,100529.06
2023-03-01T15:24:06.703Z,100527.94
2023-03-01T15:26:43.644Z,100524.75
2023-03-01T15:29:20.831Z,100533.25
2023-03-01T15:34:41.721Z,100535.56
2023-03-01T15:37:42.128Z,100529.41
2023-03-01T15:40:44.561Z,100541.44
2023-03-01T15:43:48.250Z,100545.25
2023-03-01T15:46:29.177Z,100550.44
2023-03-01T15:49:00.595Z,100551.97
2023-03-01T15:51:41.458Z,100547.63
2023-03-01T15:54:18.679Z,100533.75
2023-03-01T15:56:52.775Z,100549.41
2023-03-01T15:59:23.139Z,100536.41
2023-03-01T16:01:51.150Z,100537.56
2023-03-01T16:04:23.929Z,100552.41
2023-03-01T16:07:00.758Z,100540.03
2023-03-01T16:09:34.997Z,100546.19
2023-03-01T16:12:04.641Z,100549.84
2023-03-01T16:14:34.165Z,100542.47
2023-03-01T16:17:02.094Z,100541.31
2023-03-01T16:19:29.793Z,100555.94
2023-03-01T16:21:58.147Z,100549.72
2023-03-01T16:24:26.974Z,100544.56
2023-03-01T16:26:54.922Z,100543.22
2023-03-01T16:29:24.115Z,100564.19
2023-03-01T16:31:51.957Z,100570.34
2023-03-01T16:34:22.754Z,100556.28
2023-03-01T16:36:50.571Z,100551.63
2023-03-01T16:39:18.273Z,100556.22
2023-03-01T16:41:45.976Z,100546.72
2023-03-01T16:44:13.622Z,100556.56
2023-03-01T16:46:44.645Z,100551.38
2023-03-01T16:49:12.918Z,100559.00
2023-03-01T16:51:40.610Z,100557.81
2023-03-01T16:54:16.535Z,100566.25
2023-03-01T16:56:45.225Z,100551.88
2023-03-01T16:59:45.048Z,100564.69
2023-03-01T17:02:17.102Z,100559.50
2023-03-01T17:04:45.713Z,100561.13
2023-03-01T17:07:17.435Z,100567.59
2023-03-01T17:09:51.468Z,100565.88
2023-03-01T17:12:20.592Z,100578.09
2023-03-01T17:14:50.554Z,100571.19
2023-03-01T17:17:21.066Z,100569.28
2023-03-01T17:19:51.310Z,100575.69
2023-03-01T17:22:18.949Z,100578.03
2023-03-01T17:24:47.013Z,100579.16
2023-03-01T17:27:15.959Z,100576.28
2023-03-01T17:29:43.724Z,100585.63
2023-03-01T17:32:11.804Z,100588.50
2023-03-01T17:34:40.904Z,100585.25
2023-03-01T17:37:08.657Z,100597.03
2023-03-01T17:39:37.007Z,100586.69
2023-03-01T17:42:07.153Z,100599.50
2023-03-01T17:44:35.397Z,100595.13
2023-03-01T17:47:06.022Z,100593.75
2023-03-01T17:49:34.412Z,100590.63
2023-03-01T17:52:04.763Z,100598.44
2023-03-01T17:54:33.354Z,100594.16
2023-03-01T17:57:01.631Z,100595.84
2023-03-01T17:59:35.488Z,100599.91
2023-03-01T18:02:06.808Z,100600.75
2023-03-01T18:04:34.593Z,100596.78
2023-03-01T18:07:02.338Z,100598.56
2023-03-01T18:09:31.666Z,100601.22
2023-03-01T18:11:59.670Z,100604.44
2023-03-01T18:14:31.885Z,100614.97
2023-03-01T18:16:59.606Z,100611.94
2023-03-01T18:19:28.489Z,100617.59
2023-03-01T18:21:56.800Z,100611.88
2023-03-01T18:24:24.963Z,100616.50
2023-03-01T18:26:54.083Z,100608.97
2023-03-01T18:29:22.111Z,100602.41
2023-03-01T18:31:49.954Z,100603.16
2023-03-01T18:34:17.725Z,100587.50
2023-03-01T18:37:00.551Z,100589.88
2023-03-01T18:39:35.373Z,100584.31
2023-03-01T18:42:24.766Z,100585.31
2023-03-01T18:44:55.014Z,100575.38
2023-03-01T18:47:24.554Z,100589.47
2023-03-01T18:49:52.452Z,100587.56
2023-03-01T18:52:20.213Z,100592.44
2023-03-01T18:54:48.056Z,100588.94
2023-03-01T18:57:17.353Z,100586.16
2023-03-01T18:59:45.070Z,100585.31
2023-03-01T19:02:15.859Z,100594.78
2023-03-01T19:04:44.192Z,100603.50
2023-03-01T19:07:13.542Z,100601.38
2023-03-01T19:09:41.555Z,100601.97
2023-03-01T19:12:09.747Z,100605.31
2023-03-01T19:14:39.791Z,100599.84
2023-03-01T19:17:07.646Z,100607.25
2023-03-01T19:19:36.506Z,100608.09
2023-03-01T19:24:50.983Z,100619.25
2023-03-01T19:27:18.929Z,100616.75
2023-03-01T19:29:48.091Z,100615.63
2023-03-01T19:32:19.184Z,100616.88
2023-03-01T19:34:47.021Z,100617.72
2023-03-01T19:37:15.154Z,100625.13
2023-03-01T19:39:50.796Z,100622.47
2023-03-01T19:42:18.566Z,100629.97
2023-03-01T19:44:46.241Z,100635.16
2023-03-01T19:47:15.432Z,100630.97
2023-03-01T19:49:46.257Z,100641.28
2023-03-01T19:52:14.966Z,100643.25
2023-03-01T19:54:42.834Z,100648.25
2023-03-01T19:57:10.568Z,100638.22
2023-03-01T19:59:38.608Z,100634.28
2023-03-01T20:02:06.840Z,100639.72
2023-03-01T20:04:36.049Z,100641.38
2023-03-01T20:07:04.865Z,100637.75
2023-03-01T20:09:32.708Z,100632.66
2023-03-01T20:12:00.559Z,100640.75
2023-03-01T20:14:28.234Z,100632.06
2023-03-01T20:16:55.815Z,100636.91
2023-03-01T20:19:24.467Z,100635.03
2023-03-01T20:21:53.560Z,100640.19
2023-03-01T20:24:21.433Z,100651.72
2023-03-01T20:26:49.085Z,100640.53
2023-03-01T20:29:16.972Z,100639.38
2023-03-01T20:31:45.126Z,100648.44
2023-03-01T20:34:12.815Z,100650.47
2023-03-01T20:36:41.567Z,100645.50
2023-03-01T20:39:13.598Z,100650.09
2023-03-01T20:41:41.477Z,100661.34
2023-03-01T20:44:12.373Z,100648.50
2023-03-01T20:46:40.397Z,100644.28
2023-03-01T20:49:08.277Z,100644.69
2023-03-01T20:51:35.941Z,100645.03
2023-03-01T20:54:04.954Z,100655.41
2023-03-01T20:56:34.515Z,100653.97
2023-03-01T20:59:05.287Z,100642.75
2023-03-01T21:01:34.438Z,100641.66
2023-03-01T21:04:02.520Z,100647.34
2023-03-01T21:06:30.484Z,100639.06
2023-03-01T21:08:58.828Z,100639.06
2023-03-01T21:11:26.649Z,100635.91
2023-03-01T21:13:57.042Z,100641.28
2023-03-01T21:16:29.959Z,100643.16
2023-03-01T21:19:00.307Z,100646.84
2023-03-01T21:24:11.962Z,100642.19
2023-03-01T21:26:39.825Z,100644.81
2023-03-01T21:29:11.160Z,100646.44
2023-03-01T21:31:49.171Z,100652.72
2023-03-01T21:34:16.800Z,100649.09
2023-03-01T21:36:44.505Z,100641.09
2023-03-01T21:39:14.387Z,100643.94
2023-03-01T21:41:42.128Z,100643.84
2023-03-01T21:44:13.369Z,100637.47
2023-03-01T21:46:42.219Z,100644.75
2023-03-01T21:49:13.884Z,100640.56
2023-03-01T21:51:42.404Z,100646.44
2023-03-01T21:54:14.013Z,100652.56
2023-03-01T21:56:42.042Z,100656.69
2023-03-01T21:59:17.701Z,100654.94
2023-03-01T22:01:48.716Z,100646.91
2023-03-01T22:04:17.580Z,100645.94
2023-03-01T22:06:47.342Z,100649.16
2023-03-01T22:09:18.936Z,100644.75
2023-03-01T22:11:50.505Z,100642.44
2023-03-01T22:14:28.367Z,100643.03
2023-03-01T22:16:57.320Z,100650.50
2023-03-01T22:19:27.118Z,100638.50
2023-03-01T22:21:54.823Z,100641.34
2023-03-01T22:24:25.275Z,100638.84
2023-03-01T22:26:54.593Z,100646.09
2023-03-01T22:29:26.122Z,100648.19
2023-03-01T22:31:54.798Z,100644.13
2023-03-01T22:34:23.134Z,100638.44
2023-03-01T22:36:51.270Z,100638.63
2023-03-01T22:39:21.214Z,100636.09
2023-03-01T22:41:50.089Z,100635.44
2023-03-01T22:44:25.524Z,100634.22
2023-03-01T22:46:53.289Z,100630.06
2023-03-01T22:49:21.492Z,100628.84
2023-03-01T22:51:49.439Z,100631.94
2023-03-01T22:54:19.195Z,100619.19
2023-03-01T22:56:47.327Z,100618.25
2023-03-01T22:59:18.938Z,100621.31
2023-03-01T23:01:48.565Z,100619.50
2023-03-01T23:04:16.538Z,100623.28
2023-03-01T23:06:51.622Z,100627.53
2023-03-01T23:09:24.007Z,100635.81
2023-03-01T23:11:53.243Z,100617.09
2023-03-01T23:14:22.068Z,100617.97
2023-03-01T23:16:52.050Z,100613.50
2023-03-01T23:19:19.931Z,100615.53
2023-03-01T23:21:50.324Z,100615.72
2023-03-01T23:24:22.362Z,100612.53
2023-03-01T23:26:53.543Z,100623.59
2023-03-01T23:29:21.559Z,100615.53
2023-03-01T23:31:49.258Z,100615.66
2023-03-01T23:34:19.258Z,100611.53
2023-03-01T23:36:46.940Z,100612.09
2023-03-01T23:39:15.406Z,100616.13
2023-03-01T23:41:43.444Z,100611.91
2023-03-01T23:44:15.985Z,100613.03
2023-03-01T23:46:44.291Z,100613.06
2023-03-01T23:49:13.867Z,100609.91
2023-03-01T23:51:44.491Z,100618.22
2023-03-01T23:54:14.132Z,100602.75
2023-03-01T23:56:44.049Z,100607.66
2023-03-01T23:59:14.306Z,100610.88
